createdAt,value
2023-02-24T00:00:53.695Z,3.2
2023-02-24T00:01:57.373Z,3.2
2023-02-24T00:03:00.180Z,3.3
2023-02-24T00:04:03.373Z,3.3
2023-02-24T00:05:05.504Z,3.3
2023-02-24T00:06:08.362Z,3.4
2023-02-24T00:07:11.517Z,3.4
2023-02-24T00:08:13.973Z,3.4
2023-02-24T00:09:17.400Z,3.3
2023-02-24T00:10:21.098Z,3.2
2023-02-24T00:11:24.629Z,3.2
2023-02-24T00:12:27.949Z,3.2
2023-02-24T00:13:31.465Z,3.2
2023-02-24T00:14:34.281Z,3.2
2023-02-24T00:15:37.932Z,3.2
2023-02-24T00:16:42.095Z,3.3
2023-02-24T00:17:45.759Z,3.3
2023-02-24T00:18:49.171Z,3.3
2023-02-24T00:19:52.170Z,3.2
2023-02-24T00:20:55.232Z,3.2
2023-02-24T00:21:58.671Z,3.3
2023-02-24T00:23:02.416Z,3.3
2023-02-24T00:24:05.245Z,3.3
2023-02-24T00:25:07.681Z,3.4
2023-02-24T00:26:10.930Z,3.4
2023-02-24T00:27:14.289Z,3.4
2023-02-24T00:28:17.417Z,3.4
2023-02-24T00:29:21.214Z,3.4
2023-02-24T00:30:24.424Z,3.4
2023-02-24T00:31:28.562Z,3.5
2023-02-24T00:32:33.830Z,3.4
2023-02-24T00:33:36.948Z,3.4
2023-02-24T00:34:39.699Z,3.4
2023-02-24T00:35:41.636Z,3.4
2023-02-24T00:36:44.632Z,3.4
2023-02-24T00:37:48.070Z,3.5
2023-02-24T00:38:51.379Z,3.5
2023-02-24T00:39:54.386Z,3.4
2023-02-24T00:40:57.752Z,3.4
2023-02-24T00:42:01.198Z,3.4
2023-02-24T00:43:03.698Z,3.4
2023-02-24T00:44:06.759Z,3.3
2023-02-24T00:45:10.516Z,3.4
2023-02-24T00:46:13.942Z,3.4
2023-02-24T00:47:17.974Z,3.4
2023-02-24T00:48:21.420Z,3.4
2023-02-24T00:49:25.098Z,3.5
2023-02-24T00:50:28.206Z,3.5
2023-02-24T00:51:31.571Z,3.4
2023-02-24T00:52:34.395Z,3.4
2023-02-24T00:53:37.862Z,3.4
2023-02-24T00:54:40.594Z,3.4
2023-02-24T00:55:43.035Z,3.4
2023-02-24T00:56:45.570Z,3.4
2023-02-24T00:57:48.998Z,3.4
2023-02-24T00:58:51.792Z,3.3
2023-02-24T00:59:55.852Z,3.3
2023-02-24T01:00:59.430Z,3.4
2023-02-24T01:02:03.091Z,3.4
2023-02-24T01:03:05.629Z,3.4
2023-02-24T01:04:09.279Z,3.4
2023-02-24T01:05:12.460Z,3.4
2023-02-24T01:06:15.939Z,3.5
2023-02-24T01:07:18.704Z,3.5
2023-02-24T01:08:22.058Z,3.5
2023-02-24T01:09:25.118Z,3.6
2023-02-24T01:10:27.878Z,3.5
2023-02-24T01:11:31.610Z,3.5
2023-02-24T01:12:34.615Z,3.5
2023-02-24T01:13:37.760Z,3.5
2023-02-24T01:14:41.213Z,3.5
2023-02-24T01:15:44.735Z,3.5
2023-02-24T01:16:48.893Z,3.5
2023-02-24T01:17:52.111Z,3.5
2023-02-24T01:18:55.847Z,3.6
2023-02-24T01:19:59.019Z,3.6
2023-02-24T01:21:02.731Z,3.5
2023-02-24T01:22:06.071Z,3.5
2023-02-24T01:23:08.991Z,3.5
2023-02-24T01:24:11.473Z,3.5
2023-02-24T01:25:14.383Z,3.5
2023-02-24T01:26:17.737Z,3.5
2023-02-24T01:27:20.932Z,3.5
2023-02-24T01:28:23.379Z,3.5
2023-02-24T01:29:26.760Z,3.5
2023-02-24T01:30:30.106Z,3.5
2023-02-24T01:31:34.312Z,3.6
2023-02-24T01:32:39.604Z,3.6
2023-02-24T01:33:43.293Z,3.6
2023-02-24T01:34:46.061Z,3.7
2023-02-24T01:35:49.065Z,3.6
2023-02-24T01:36:52.425Z,3.6
2023-02-24T01:37:55.608Z,3.6
2023-02-24T01:38:58.683Z,3.7
2023-02-24T01:40:01.447Z,3.7
2023-02-24T01:41:04.160Z,3.7
2023-02-24T01:42:07.219Z,3.7
2023-02-24T01:43:10.012Z,3.7
2023-02-24T01:44:13.027Z,3.7
2023-02-24T01:45:15.908Z,3.6
2023-02-24T01:46:19.206Z,3.6
2023-02-24T01:47:23.192Z,3.6
2023-02-24T01:48:26.876Z,3.6
2023-02-24T01:49:31.342Z,3.6
2023-02-24T01:50:34.576Z,3.6
2023-02-24T01:51:37.971Z,3.6
2023-02-24T01:52:40.675Z,3.6
2023-02-24T01:53:43.454Z,3.7
2023-02-24T01:54:46.259Z,3.6
2023-02-24T01:55:49.964Z,3.5
2023-02-24T01:56:52.447Z,3.6
2023-02-24T01:57:55.798Z,3.7
2023-02-24T01:58:58.859Z,3.6
2023-02-24T02:00:01.370Z,3.6
2023-02-24T02:01:04.276Z,3.6
2023-02-24T02:02:08.757Z,3.5
2023-02-24T02:03:13.174Z,3.6
2023-02-24T02:04:16.977Z,3.5
2023-02-24T02:05:21.034Z,3.5
2023-02-24T02:06:23.703Z,3.5
2023-02-24T02:07:26.555Z,3.5
2023-02-24T02:08:29.112Z,3.6
2023-02-24T02:09:32.106Z,3.5
2023-02-24T02:10:35.776Z,3.5
2023-02-24T02:11:38.568Z,3.5
2023-02-24T02:12:41.001Z,3.5
2023-02-24T02:13:44.518Z,3.5
2023-02-24T02:14:48.109Z,3.5
2023-02-24T02:15:51.779Z,3.5
2023-02-24T02:16:55.530Z,3.5
2023-02-24T02:17:58.562Z,3.5
2023-02-24T02:19:02.367Z,3.5
2023-02-24T02:20:05.901Z,3.5
2023-02-24T02:21:08.710Z,3.5
2023-02-24T02:22:11.520Z,3.5
2023-02-24T02:23:14.559Z,3.5
2023-02-24T02:24:17.682Z,3.5
2023-02-24T02:25:20.819Z,3.5
2023-02-24T02:26:23.550Z,3.5
2023-02-24T02:27:26.881Z,3.5
2023-02-24T02:28:29.321Z,3.5
2023-02-24T02:29:32.664Z,3.5
2023-02-24T02:30:36.083Z,3.5
2023-02-24T02:31:40.591Z,3.4
2023-02-24T02:32:44.586Z,3.4
2023-02-24T02:33:48.828Z,3.4
2023-02-24T02:34:52.917Z,3.5
2023-02-24T02:35:56.771Z,3.5
2023-02-24T02:37:00.488Z,3.5
2023-02-24T02:38:03.495Z,3.6
2023-02-24T02:39:06.274Z,3.5
2023-02-24T02:40:10.044Z,3.5
2023-02-24T02:41:13.597Z,3.6
2023-02-24T02:42:17.232Z,3.5
2023-02-24T02:43:20.919Z,3.5
2023-02-24T02:44:23.538Z,3.5
2023-02-24T02:45:26.828Z,3.5
2023-02-24T02:46:30.263Z,3.5
2023-02-24T02:47:34.012Z,3.5
2023-02-24T02:48:37.187Z,3.5
2023-02-24T02:49:40.383Z,3.6
2023-02-24T02:50:43.320Z,3.6
2023-02-24T02:51:46.843Z,3.6
2023-02-24T02:52:50.286Z,3.5
2023-02-24T02:53:52.287Z,3.5
2023-02-24T02:54:55.069Z,3.5
2023-02-24T02:55:58.825Z,3.5
2023-02-24T02:57:02.339Z,3.6
2023-02-24T02:58:06.156Z,3.6
2023-02-24T02:59:08.999Z,3.6
2023-02-24T03:00:12.035Z,3.5
2023-02-24T03:01:15.496Z,3.5
2023-02-24T03:02:19.071Z,3.5
2023-02-24T03:03:22.741Z,3.4
2023-02-24T03:04:26.030Z,3.4
2023-02-24T03:05:29.174Z,3.5
2023-02-24T03:06:32.136Z,3.5
2023-02-24T03:07:36.013Z,3.5
2023-02-24T03:08:39.650Z,3.4
2023-02-24T03:09:43.351Z,3.5
2023-02-24T03:10:45.964Z,3.5
2023-02-24T03:11:49.687Z,3.4
2023-02-24T03:12:53.191Z,3.5
2023-02-24T03:13:56.273Z,3.5
2023-02-24T03:14:59.062Z,3.5
2023-02-24T03:16:02.149Z,3.5
2023-02-24T03:17:04.986Z,3.5
2023-02-24T03:18:07.426Z,3.6
2023-02-24T03:19:10.580Z,3.6
2023-02-24T03:20:13.734Z,3.6
2023-02-24T03:21:16.669Z,3.5
2023-02-24T03:22:20.382Z,3.5
2023-02-24T03:23:24.257Z,3.5
2023-02-24T03:24:27.684Z,3.5
2023-02-24T03:25:30.246Z,3.5
2023-02-24T03:26:33.462Z,3.5
2023-02-24T03:27:36.519Z,3.5
2023-02-24T03:28:39.986Z,3.5
2023-02-24T03:29:42.507Z,3.5
2023-02-24T03:30:45.355Z,3.5
2023-02-24T03:31:49.212Z,3.5
2023-02-24T03:32:53.447Z,3.5
2023-02-24T03:33:56.577Z,3.4
2023-02-24T03:34:59.669Z,3.4
2023-02-24T03:36:03.047Z,3.4
2023-02-24T03:37:06.145Z,3.4
2023-02-24T03:38:09.663Z,3.3
2023-02-24T03:39:14.029Z,3.4
2023-02-24T03:40:17.737Z,3.4
2023-02-24T03:41:22.456Z,3.3
2023-02-24T03:42:25.522Z,3.4
2023-02-24T03:43:28.588Z,3.4
2023-02-24T03:44:31.380Z,3.4
2023-02-24T03:45:34.712Z,3.3
2023-02-24T03:46:38.503Z,3.4
2023-02-24T03:47:41.581Z,3.5
2023-02-24T03:48:45.015Z,3.5
2023-02-24T03:49:47.870Z,3.4
2023-02-24T03:50:51.339Z,3.3
2023-02-24T03:51:54.481Z,3.3
2023-02-24T03:52:57.825Z,3.3
2023-02-24T03:54:00.879Z,3.3
2023-02-24T03:55:04.993Z,3.3
2023-02-24T03:56:08.332Z,3.3
2023-02-24T03:57:11.383Z,3.2
2023-02-24T03:58:14.466Z,3.2
2023-02-24T03:59:18.162Z,3.2
2023-02-24T04:00:20.615Z,3.2
2023-02-24T04:01:24.819Z,3.3
2023-02-24T04:02:28.505Z,3.3
2023-02-24T04:03:31.428Z,3.3
2023-02-24T04:04:35.378Z,3.3
2023-02-24T04:05:38.049Z,3.2
2023-02-24T04:06:41.140Z,3.2
2023-02-24T04:07:44.485Z,3.2
2023-02-24T04:08:47.922Z,3.2
2023-02-24T04:09:50.498Z,3.2
2023-02-24T04:10:54.802Z,3.2
2023-02-24T04:11:57.875Z,3.2
2023-02-24T04:13:01.551Z,3.2
2023-02-24T04:14:04.388Z,3.2
2023-02-24T04:15:07.021Z,3.2
2023-02-24T04:16:10.170Z,3.2
2023-02-24T04:17:13.337Z,3.2
2023-02-24T04:18:16.742Z,3.2
2023-02-24T04:19:19.595Z,3.2
2023-02-24T04:20:23.379Z,3.2
2023-02-24T04:21:26.757Z,3.2
2023-02-24T04:22:29.474Z,3.2
2023-02-24T04:23:32.303Z,3.3
2023-02-24T04:24:35.801Z,3.2
2023-02-24T04:25:38.907Z,3.2
2023-02-24T04:26:42.731Z,3.2
2023-02-24T04:27:46.052Z,3.2
2023-02-24T04:28:48.471Z,3.3
2023-02-24T04:29:52.298Z,3.3
2023-02-24T04:30:56.800Z,3.2
2023-02-24T04:32:00.816Z,3.1
2023-02-24T04:33:03.389Z,3.2
2023-02-24T04:34:06.785Z,3.2
2023-02-24T04:35:09.974Z,3.2
2023-02-24T04:36:13.094Z,3.2
2023-02-24T04:37:15.800Z,3.1
2023-02-24T04:38:18.633Z,3.2
2023-02-24T04:39:21.558Z,3.2
2023-02-24T04:40:24.133Z,3.2
2023-02-24T04:41:27.181Z,3.1
2023-02-24T04:42:30.679Z,3.2
2023-02-24T04:43:34.419Z,3.2
2023-02-24T04:44:37.307Z,3.2
2023-02-24T04:45:40.215Z,3.3
2023-02-24T04:46:43.654Z,3.2
2023-02-24T04:47:46.281Z,3.2
2023-02-24T04:48:48.836Z,3.1
2023-02-24T04:49:51.974Z,3.1
2023-02-24T04:50:54.696Z,3.1
2023-02-24T04:51:56.846Z,3.1
2023-02-24T04:53:00.221Z,3
2023-02-24T04:54:03.223Z,3
2023-02-24T04:55:07.233Z,3
2023-02-24T04:56:11.019Z,3.1
2023-02-24T04:57:13.960Z,3
2023-02-24T04:58:17.762Z,3
2023-02-24T04:59:21.218Z,3
2023-02-24T05:00:24.630Z,3
2023-02-24T05:01:27.902Z,3
2023-02-24T05:02:30.748Z,3
2023-02-24T05:03:34.000Z,3
2023-02-24T05:04:36.989Z,3.1
2023-02-24T05:05:40.224Z,3
2023-02-24T05:06:43.498Z,3
2023-02-24T05:07:46.017Z,2.9
2023-02-24T05:08:49.373Z,3
2023-02-24T05:09:52.479Z,3
2023-02-24T05:10:55.572Z,3
2023-02-24T05:11:58.371Z,3
2023-02-24T05:13:03.926Z,3.1
2023-02-24T05:14:07.990Z,3.1
2023-02-24T05:15:10.943Z,3
2023-02-24T05:16:14.141Z,3.1
2023-02-24T05:17:17.594Z,3
2023-02-24T05:18:20.363Z,3
2023-02-24T05:19:24.089Z,3
2023-02-24T05:20:27.686Z,3.1
2023-02-24T05:21:31.499Z,3
2023-02-24T05:22:34.629Z,3
2023-02-24T05:23:37.681Z,3
2023-02-24T05:24:40.235Z,3
2023-02-24T05:25:43.224Z,3.1
2023-02-24T05:26:46.001Z,3.1
2023-02-24T05:27:49.090Z,3
2023-02-24T05:28:52.632Z,3
2023-02-24T05:29:57.465Z,3
2023-02-24T05:31:01.156Z,2.9
2023-02-24T05:32:05.435Z,3
2023-02-24T05:33:08.886Z,2.9
2023-02-24T05:34:11.799Z,3
2023-02-24T05:35:14.503Z,3
2023-02-24T05:36:17.608Z,3
2023-02-24T05:37:20.500Z,3
2023-02-24T05:38:23.491Z,3
2023-02-24T05:39:26.608Z,3
2023-02-24T05:40:30.111Z,3
2023-02-24T05:41:33.191Z,3
2023-02-24T05:42:35.982Z,2.9
2023-02-24T05:43:39.007Z,2.9
2023-02-24T05:44:42.839Z,2.9
2023-02-24T05:45:46.983Z,2.9
2023-02-24T05:46:50.394Z,2.9
2023-02-24T05:47:53.828Z,3
2023-02-24T05:48:56.807Z,3
2023-02-24T05:50:00.605Z,2.9
2023-02-24T05:51:06.764Z,2.9
2023-02-24T05:52:10.822Z,2.9
2023-02-24T05:53:13.253Z,2.9
2023-02-24T05:54:16.936Z,2.8
2023-02-24T05:55:20.005Z,2.8
2023-02-24T05:56:23.153Z,2.8
2023-02-24T05:57:25.654Z,2.9
2023-02-24T05:58:29.080Z,2.9
2023-02-24T05:59:31.906Z,2.9
2023-02-24T06:00:35.408Z,2.9
2023-02-24T06:01:39.548Z,2.9
2023-02-24T06:02:42.778Z,2.9
2023-02-24T06:03:46.295Z,2.8
2023-02-24T06:04:49.650Z,2.9
2023-02-24T06:05:52.521Z,2.9
2023-02-24T06:06:54.958Z,2.9
2023-02-24T06:07:58.008Z,2.9
2023-02-24T06:09:00.503Z,2.9
2023-02-24T06:10:03.626Z,2.9
2023-02-24T06:11:06.807Z,2.8
2023-02-24T06:12:10.577Z,2.8
2023-02-24T06:13:13.739Z,2.8
2023-02-24T06:14:17.305Z,2.8
2023-02-24T06:15:20.656Z,2.8
2023-02-24T06:16:24.005Z,2.9
2023-02-24T06:17:28.271Z,2.9
2023-02-24T06:18:31.489Z,3
2023-02-24T06:19:34.313Z,2.9
2023-02-24T06:20:38.200Z,2.9
2023-02-24T06:21:42.097Z,2.9
2023-02-24T06:22:44.618Z,2.9
2023-02-24T06:23:47.420Z,2.9
2023-02-24T06:24:50.916Z,2.8
2023-02-24T06:25:53.642Z,2.9
2023-02-24T06:26:57.278Z,2.9
2023-02-24T06:28:00.362Z,2.9
2023-02-24T06:29:03.447Z,2.9
2023-02-24T06:30:05.919Z,2.9
2023-02-24T06:31:09.108Z,3
2023-02-24T06:32:13.100Z,3
2023-02-24T06:33:17.048Z,2.9
2023-02-24T06:34:20.690Z,2.9
2023-02-24T06:35:24.088Z,3
2023-02-24T06:36:26.320Z,3
2023-02-24T06:37:29.928Z,3
2023-02-24T06:38:33.084Z,3
2023-02-24T06:39:38.120Z,3
2023-02-24T06:40:41.706Z,3
2023-02-24T06:41:45.177Z,3
2023-02-24T06:42:48.634Z,3
2023-02-24T06:43:51.802Z,3
2023-02-24T06:44:55.450Z,2.9
2023-02-24T06:45:59.443Z,2.9
2023-02-24T06:47:01.859Z,2.9
2023-02-24T06:48:04.400Z,2.9
2023-02-24T06:49:08.200Z,2.9
2023-02-24T06:50:11.902Z,3
2023-02-24T06:51:16.105Z,3
2023-02-24T06:52:20.469Z,3
2023-02-24T06:53:23.657Z,3
2023-02-24T06:54:26.163Z,3
2023-02-24T06:55:29.171Z,3
2023-02-24T06:56:34.139Z,3
2023-02-24T06:57:37.599Z,2.9
2023-02-24T06:58:39.687Z,3
2023-02-24T06:59:43.036Z,2.9
2023-02-24T07:00:46.202Z,3
2023-02-24T07:01:49.331Z,2.9
2023-02-24T07:02:52.881Z,2.9
2023-02-24T07:03:56.516Z,2.9
2023-02-24T07:05:00.151Z,2.9
2023-02-24T07:06:03.295Z,2.9
2023-02-24T07:07:06.766Z,3
2023-02-24T07:08:09.265Z,3
2023-02-24T07:09:12.337Z,3
2023-02-24T07:10:14.835Z,3
2023-02-24T07:11:17.924Z,3
2023-02-24T07:12:22.004Z,3
2023-02-24T07:13:25.176Z,3
2023-02-24T07:14:28.341Z,3
2023-02-24T07:15:31.118Z,3
2023-02-24T07:16:34.444Z,2.9
2023-02-24T07:17:38.165Z,2.9
2023-02-24T07:18:41.640Z,2.9
2023-02-24T07:19:44.772Z,2.9
2023-02-24T07:20:48.951Z,3
2023-02-24T07:21:52.335Z,2.9
2023-02-24T07:22:55.182Z,2.8
2023-02-24T07:24:00.902Z,2.8
2023-02-24T07:25:03.912Z,2.9
2023-02-24T07:26:07.695Z,2.8
2023-02-24T07:27:11.433Z,2.8
2023-02-24T07:28:14.792Z,2.8
2023-02-24T07:29:18.136Z,2.8
2023-02-24T07:30:21.538Z,2.8
2023-02-24T07:31:27.389Z,2.8
2023-02-24T07:32:31.297Z,2.8
2023-02-24T07:33:33.548Z,2.8
2023-02-24T07:34:37.073Z,2.8
2023-02-24T07:35:42.984Z,2.8
2023-02-24T07:36:46.474Z,2.8
2023-02-24T07:37:49.555Z,2.7
2023-02-24T07:38:52.640Z,2.7
2023-02-24T07:39:55.692Z,2.7
2023-02-24T07:40:59.103Z,2.6
2023-02-24T07:42:02.008Z,2.5
2023-02-24T07:43:05.101Z,2.6
2023-02-24T07:44:07.533Z,2.6
2023-02-24T07:45:11.078Z,2.6
2023-02-24T07:46:14.168Z,2.6
2023-02-24T07:47:17.868Z,2.7
2023-02-24T07:48:21.043Z,2.7
2023-02-24T07:49:23.790Z,2.6
2023-02-24T07:50:27.128Z,2.6
2023-02-24T07:51:30.532Z,2.6
2023-02-24T07:52:34.640Z,2.5
2023-02-24T07:53:38.016Z,2.5
2023-02-24T07:54:41.661Z,2.5
2023-02-24T07:55:43.969Z,2.4
2023-02-24T07:56:46.829Z,2.5
2023-02-24T07:57:50.220Z,2.6
2023-02-24T07:58:53.571Z,2.6
2023-02-24T07:59:56.864Z,2.5
2023-02-24T08:00:59.310Z,2.5
2023-02-24T08:02:02.981Z,2.5
2023-02-24T08:03:06.174Z,2.5
2023-02-24T08:04:09.309Z,2.5
2023-02-24T08:05:13.107Z,2.5
2023-02-24T08:06:15.886Z,2.5
2023-02-24T08:07:19.127Z,2.5
2023-02-24T08:08:23.076Z,2.4
2023-02-24T08:09:26.451Z,2.4
2023-02-24T08:10:29.943Z,2.5
2023-02-24T08:11:33.550Z,2.5
2023-02-24T08:12:37.371Z,2.5
2023-02-24T08:13:40.303Z,2.4
2023-02-24T08:14:43.429Z,2.4
2023-02-24T08:15:47.108Z,2.4
2023-02-24T08:16:50.513Z,2.4
2023-02-24T08:17:54.001Z,2.3
2023-02-24T08:18:57.733Z,2.3
2023-02-24T08:20:00.889Z,2.3
2023-02-24T08:21:04.920Z,2.4
2023-02-24T08:22:08.401Z,2.3
2023-02-24T08:23:11.538Z,2.2
2023-02-24T08:24:15.687Z,2.3
2023-02-24T08:25:20.145Z,2.2
2023-02-24T08:26:23.246Z,2.2
2023-02-24T08:27:26.765Z,2.2
2023-02-24T08:28:30.483Z,2.2
2023-02-24T08:29:33.361Z,2.2
2023-02-24T08:30:36.953Z,2.2
2023-02-24T08:31:41.113Z,2.2
2023-02-24T08:32:45.565Z,2.2
2023-02-24T08:33:48.662Z,2.2
2023-02-24T08:34:51.422Z,2.2
2023-02-24T08:35:55.186Z,2.2
2023-02-24T08:36:58.565Z,2.2
2023-02-24T08:38:01.985Z,2.2
2023-02-24T08:39:04.931Z,2.2
2023-02-24T08:40:08.761Z,2.2
2023-02-24T08:41:12.245Z,2
2023-02-24T08:42:15.123Z,1.9
2023-02-24T08:43:18.091Z,1.9
2023-02-24T08:44:20.956Z,2
2023-02-24T08:45:23.202Z,2
2023-02-24T08:46:27.480Z,1.9
2023-02-24T08:47:31.571Z,1.9
2023-02-24T08:48:34.431Z,1.9
2023-02-24T08:49:37.253Z,1.9
2023-02-24T08:50:40.406Z,1.8
2023-02-24T08:51:43.778Z,1.7
2023-02-24T08:52:46.631Z,1.7
2023-02-24T08:53:49.338Z,1.7
2023-02-24T08:54:52.526Z,1.7
2023-02-24T08:55:56.301Z,1.7
2023-02-24T08:57:00.000Z,1.7
2023-02-24T08:58:03.315Z,1.8
2023-02-24T08:59:07.775Z,1.8
2023-02-24T09:00:10.902Z,1.8
2023-02-24T09:01:14.375Z,1.8
2023-02-24T09:02:18.333Z,1.7
2023-02-24T09:03:22.141Z,1.7
2023-02-24T09:04:25.539Z,1.7
2023-02-24T09:05:29.619Z,1.7
2023-02-24T09:06:32.880Z,1.7
2023-02-24T09:07:36.492Z,1.7
2023-02-24T09:08:40.184Z,1.7
2023-02-24T09:09:44.180Z,1.7
2023-02-24T09:10:47.697Z,1.7
2023-02-24T09:11:51.250Z,1.8
2023-02-24T09:12:55.277Z,1.7
2023-02-24T09:13:58.153Z,1.7
2023-02-24T09:15:02.432Z,1.7
2023-02-24T09:16:06.125Z,1.7
2023-02-24T09:17:08.934Z,1.7
2023-02-24T09:18:12.007Z,1.7
2023-02-24T09:19:14.751Z,1.6
2023-02-24T09:20:18.539Z,1.6
2023-02-24T09:21:23.870Z,1.6
2023-02-24T09:22:26.488Z,1.6
2023-02-24T09:23:28.923Z,1.6
2023-02-24T09:24:32.022Z,1.6
2023-02-24T09:25:35.438Z,1.6
2023-02-24T09:26:38.221Z,1.5
2023-02-24T09:27:42.048Z,1.6
2023-02-24T09:28:46.382Z,1.6
2023-02-24T09:29:50.080Z,1.5
2023-02-24T09:30:53.926Z,1.5
2023-02-24T09:31:58.250Z,1.5
2023-02-24T09:33:03.024Z,1.5
2023-02-24T09:34:07.088Z,1.5
2023-02-24T09:35:10.605Z,1.5
2023-02-24T09:36:13.650Z,1.5
2023-02-24T09:37:17.096Z,1.5
2023-02-24T09:38:19.652Z,1.5
2023-02-24T09:39:23.315Z,1.5
2023-02-24T09:40:27.106Z,1.4
2023-02-24T09:41:31.942Z,1.5
2023-02-24T09:42:38.815Z,1.5
2023-02-24T09:43:42.592Z,1.5
2023-02-24T09:44:46.021Z,1.6
2023-02-24T09:45:49.740Z,1.6
2023-02-24T09:46:54.633Z,1.6
2023-02-24T09:47:58.581Z,1.6
2023-02-24T09:49:01.900Z,1.7
2023-02-24T09:50:05.711Z,1.6
2023-02-24T09:51:08.698Z,1.6
2023-02-24T09:52:12.342Z,1.6
2023-02-24T09:53:16.068Z,1.6
2023-02-24T09:54:19.799Z,1.6
2023-02-24T09:55:23.215Z,1.5
2023-02-24T09:56:27.204Z,1.5
2023-02-24T09:57:30.309Z,1.6
2023-02-24T09:58:45.965Z,1.6
2023-02-24T09:59:50.849Z,1.6
2023-02-24T10:00:54.656Z,1.6
2023-02-24T10:01:58.377Z,1.6
2023-02-24T10:03:01.893Z,1.6
2023-02-24T10:04:23.007Z,1.6
2023-02-24T10:05:26.702Z,1.6
2023-02-24T10:06:30.143Z,1.6
2023-02-24T10:07:33.192Z,1.6
2023-02-24T10:08:35.998Z,1.6
2023-02-24T10:09:39.729Z,1.6
2023-02-24T10:10:42.721Z,1.6
2023-02-24T10:11:47.870Z,1.6
2023-02-24T10:12:52.275Z,1.6
2023-02-24T10:13:55.900Z,1.6
2023-02-24T10:15:02.546Z,1.7
2023-02-24T10:16:09.133Z,1.7
2023-02-24T10:17:12.537Z,1.7
2023-02-24T10:18:15.374Z,1.8
2023-02-24T10:19:18.825Z,1.8
2023-02-24T10:20:21.641Z,1.9
2023-02-24T10:21:24.837Z,1.9
2023-02-24T10:22:28.625Z,1.9
2023-02-24T10:23:31.474Z,1.9
2023-02-24T10:24:34.567Z,1.9
2023-02-24T10:25:37.959Z,1.8
2023-02-24T10:27:09.310Z,1.8
2023-02-24T10:28:20.374Z,1.8
2023-02-24T10:29:23.900Z,1.8
2023-02-24T10:30:28.528Z,1.8
2023-02-24T10:31:32.505Z,1.8
2023-02-24T10:32:36.147Z,1.8
2023-02-24T10:33:40.082Z,1.8
2023-02-24T10:34:42.982Z,1.8
2023-02-24T10:35:46.008Z,1.8
2023-02-24T10:36:49.527Z,1.9
2023-02-24T10:37:53.158Z,1.9
2023-02-24T10:38:56.022Z,2
2023-02-24T10:39:59.272Z,1.9
2023-02-24T10:41:02.759Z,2
2023-02-24T10:42:06.558Z,2
2023-02-24T10:43:09.699Z,2
2023-02-24T10:44:12.586Z,2
2023-02-24T10:45:23.886Z,2
2023-02-24T10:46:45.462Z,1.9
2023-02-24T10:47:49.451Z,2
2023-02-24T10:48:52.833Z,2
2023-02-24T10:49:56.292Z,1.9
2023-02-24T10:50:59.694Z,2
2023-02-24T10:52:02.525Z,2
2023-02-24T10:53:05.982Z,2
2023-02-24T10:54:09.046Z,2.1
2023-02-24T10:55:12.120Z,2.1
2023-02-24T10:56:15.237Z,2.2
2023-02-24T10:57:19.055Z,2.3
2023-02-24T10:58:22.402Z,2.2
2023-02-24T10:59:26.793Z,2.2
2023-02-24T11:00:29.941Z,2.2
2023-02-24T11:01:34.273Z,2.2
2023-02-24T11:02:37.250Z,2.2
2023-02-24T11:03:41.413Z,2.2
2023-02-24T11:04:44.865Z,2.2
2023-02-24T11:05:48.113Z,2.2
2023-02-24T11:06:51.495Z,2.3
2023-02-24T11:07:55.072Z,2.3
2023-02-24T11:08:58.081Z,2.3
2023-02-24T11:10:01.416Z,2.3
2023-02-24T11:11:05.132Z,2.3
2023-02-24T11:12:07.343Z,2.3
2023-02-24T11:13:12.124Z,2.3
2023-02-24T11:14:15.062Z,2.4
2023-02-24T11:15:18.467Z,2.4
2023-02-24T11:16:22.678Z,2.4
2023-02-24T11:17:27.308Z,2.5
2023-02-24T11:18:30.592Z,2.5
2023-02-24T11:19:33.145Z,2.6
2023-02-24T11:20:51.618Z,2.6
2023-02-24T11:21:55.269Z,2.6
2023-02-24T11:22:59.312Z,2.6
2023-02-24T11:24:03.534Z,2.6
2023-02-24T11:25:07.209Z,2.6
2023-02-24T11:26:10.346Z,2.5
2023-02-24T11:27:13.160Z,2.5
2023-02-24T11:28:16.438Z,2.5
2023-02-24T11:29:20.042Z,2.5
2023-02-24T11:30:24.424Z,2.5
2023-02-24T11:31:29.829Z,2.6
2023-02-24T11:32:35.107Z,2.6
2023-02-24T11:33:38.547Z,2.7
2023-02-24T11:34:41.691Z,2.7
2023-02-24T11:35:44.808Z,2.7
2023-02-24T11:36:47.921Z,2.7
2023-02-24T11:37:50.905Z,2.8
2023-02-24T11:38:54.208Z,2.8
2023-02-24T11:39:57.997Z,2.8
2023-02-24T11:41:01.390Z,2.7
2023-02-24T11:42:04.490Z,2.7
2023-02-24T11:43:08.899Z,2.7
2023-02-24T11:44:17.772Z,2.8
2023-02-24T11:45:21.080Z,2.8
2023-02-24T11:46:24.715Z,2.8
2023-02-24T11:47:27.932Z,2.8
2023-02-24T11:48:31.707Z,2.8
2023-02-24T11:49:35.792Z,2.8
2023-02-24T11:50:39.234Z,2.8
2023-02-24T11:51:42.480Z,2.8
2023-02-24T11:52:46.184Z,2.8
2023-02-24T11:53:49.803Z,2.8
2023-02-24T11:54:52.637Z,2.9
2023-02-24T11:55:55.097Z,2.9
2023-02-24T11:56:58.468Z,2.9
2023-02-24T11:58:01.326Z,2.9
2023-02-24T11:59:04.696Z,2.9
2023-02-24T12:00:08.069Z,2.9
2023-02-24T12:01:11.501Z,2.9
2023-02-24T12:02:14.501Z,2.9
2023-02-24T12:03:18.463Z,2.9
2023-02-24T12:04:24.376Z,3
2023-02-24T12:05:28.885Z,3.5
2023-02-24T12:06:32.311Z,3.5
2023-02-24T12:07:35.707Z,3.3
2023-02-24T12:08:39.151Z,3.2
2023-02-24T12:09:42.585Z,3.2
2023-02-24T12:10:46.035Z,3.1
2023-02-24T12:11:48.597Z,3.1
2023-02-24T12:12:52.021Z,3
2023-02-24T12:13:54.743Z,3
2023-02-24T12:14:58.029Z,3
2023-02-24T12:16:01.237Z,3.1
2023-02-24T12:17:04.704Z,3.1
2023-02-24T12:18:07.483Z,3
2023-02-24T12:19:10.963Z,3.1
2023-02-24T12:20:14.818Z,3.1
2023-02-24T12:21:18.379Z,3.1
2023-02-24T12:22:21.218Z,3.1
2023-02-24T12:23:24.791Z,3.1
2023-02-24T12:24:28.159Z,3.1
2023-02-24T12:25:31.539Z,3.1
2023-02-24T12:26:34.448Z,3
2023-02-24T12:27:37.604Z,3
2023-02-24T12:28:40.034Z,3
2023-02-24T12:29:43.830Z,3
2023-02-24T12:30:47.179Z,3
2023-02-24T12:31:52.196Z,3
2023-02-24T12:32:56.826Z,3
2023-02-24T12:34:00.208Z,3.1
2023-02-24T12:35:03.723Z,3.1
2023-02-24T12:36:07.557Z,3.1
2023-02-24T12:37:10.712Z,3.1
2023-02-24T12:38:14.169Z,3.1
2023-02-24T12:39:17.145Z,3.2
2023-02-24T12:40:20.536Z,3.2
2023-02-24T12:41:25.227Z,3.2
2023-02-24T12:42:28.397Z,3.2
2023-02-24T12:43:31.475Z,3.2
2023-02-24T12:44:34.275Z,3.2
2023-02-24T12:45:38.354Z,3.1
2023-02-24T12:46:41.859Z,3.1
2023-02-24T12:47:45.378Z,3.1
2023-02-24T12:48:48.756Z,3.1
2023-02-24T12:49:52.505Z,3.2
2023-02-24T12:50:56.722Z,3.2
2023-02-24T12:52:00.270Z,3.2
2023-02-24T12:53:03.326Z,3.2
2023-02-24T12:54:06.709Z,3.2
2023-02-24T12:55:10.113Z,3.2
2023-02-24T12:56:13.124Z,3.2
2023-02-24T12:57:16.397Z,3.2
2023-02-24T12:58:19.869Z,3.1
2023-02-24T12:59:24.256Z,3.1
2023-02-24T13:00:27.895Z,3.1
2023-02-24T13:01:31.663Z,3.2
2023-02-24T13:02:35.350Z,3.2
2023-02-24T13:03:38.826Z,3.3
2023-02-24T13:04:41.674Z,3.3
2023-02-24T13:05:44.818Z,3.4
2023-02-24T13:06:48.649Z,3.4
2023-02-24T13:07:52.804Z,3.4
2023-02-24T13:08:56.291Z,3.4
2023-02-24T13:10:00.104Z,3.4
2023-02-24T13:11:03.214Z,3.3
2023-02-24T13:12:06.625Z,3.3
2023-02-24T13:13:09.699Z,3.3
2023-02-24T13:14:13.068Z,3.3
2023-02-24T13:15:15.784Z,3.3
2023-02-24T13:16:19.296Z,3.3
2023-02-24T13:17:22.843Z,3.3
2023-02-24T13:18:26.558Z,3.3
2023-02-24T13:19:30.241Z,3.3
2023-02-24T13:20:33.261Z,3.3
2023-02-24T13:21:36.913Z,3.3
2023-02-24T13:22:40.269Z,3.3
2023-02-24T13:23:44.314Z,3.3
2023-02-24T13:24:47.620Z,3.2
2023-02-24T13:25:50.701Z,3.3
2023-02-24T13:26:54.225Z,3.3
2023-02-24T13:27:57.325Z,3.3
2023-02-24T13:29:00.402Z,3.3
2023-02-24T13:30:04.005Z,3.2
2023-02-24T13:31:07.934Z,3.2
2023-02-24T13:32:12.665Z,3.2
2023-02-24T13:33:16.220Z,3.2
2023-02-24T13:34:19.396Z,3.2
2023-02-24T13:35:22.814Z,3.2
2023-02-24T13:36:26.562Z,3.3
2023-02-24T13:37:29.554Z,3.3
2023-02-24T13:38:32.699Z,3.2
2023-02-24T13:39:36.446Z,3.3
2023-02-24T13:40:39.522Z,3.3
2023-02-24T13:41:42.928Z,3.3
2023-02-24T13:42:46.009Z,3.3
2023-02-24T13:43:49.121Z,3.3
2023-02-24T13:44:52.477Z,3.3
2023-02-24T13:45:56.391Z,3.3
2023-02-24T13:46:59.870Z,3.3
2023-02-24T13:48:04.595Z,3.4
2023-02-24T13:49:07.582Z,3.4
2023-02-24T13:50:11.527Z,3.3
2023-02-24T13:51:15.543Z,3.3
2023-02-24T13:52:18.980Z,3.3
2023-02-24T13:53:21.783Z,3.3
2023-02-24T13:54:25.577Z,3.4
2023-02-24T13:55:29.547Z,3.3
2023-02-24T13:56:33.059Z,3.4
2023-02-24T13:57:36.529Z,3.4
2023-02-24T13:58:40.156Z,3.4
2023-02-24T13:59:42.593Z,3.4
2023-02-24T14:00:45.691Z,3.5
2023-02-24T14:01:50.228Z,3.5
2023-02-24T14:02:54.026Z,3.5
2023-02-24T14:03:57.111Z,3.4
2023-02-24T14:05:00.521Z,3.4
2023-02-24T14:06:03.769Z,3.4
2023-02-24T14:07:07.405Z,3.5
2023-02-24T14:08:10.135Z,3.5
2023-02-24T14:09:13.900Z,3.5
2023-02-24T14:10:17.299Z,3.5
2023-02-24T14:11:22.616Z,3.4
2023-02-24T14:12:27.060Z,3.4
2023-02-24T14:13:30.667Z,3.3
2023-02-24T14:14:34.323Z,3.4
2023-02-24T14:15:37.478Z,3.4
2023-02-24T14:16:41.724Z,3.4
2023-02-24T14:17:45.635Z,3.5
2023-02-24T14:18:48.718Z,3.4
2023-02-24T14:19:52.090Z,3.4
2023-02-24T14:20:54.907Z,3.5
2023-02-24T14:21:58.037Z,3.5
2023-02-24T14:23:01.544Z,3.5
2023-02-24T14:24:05.005Z,3.5
2023-02-24T14:25:08.446Z,3.5
2023-02-24T14:26:12.010Z,3.5
2023-02-24T14:27:18.875Z,3.5
2023-02-24T14:28:21.611Z,3.5
2023-02-24T14:29:24.799Z,3.6
2023-02-24T14:30:27.275Z,3.5
2023-02-24T14:31:31.315Z,3.5
2023-02-24T14:32:35.240Z,3.5
2023-02-24T14:33:38.963Z,3.5
2023-02-24T14:34:42.917Z,3.5
2023-02-24T14:35:47.903Z,3.6
2023-02-24T14:36:51.554Z,3.7
2023-02-24T14:37:55.890Z,3.7
2023-02-24T14:38:59.906Z,3.7
2023-02-24T14:40:03.293Z,3.6
2023-02-24T14:41:07.069Z,3.5
2023-02-24T14:42:10.606Z,3.5